createdAt,value
2018-09-07T00:04:24.802Z,18.30
2018-09-07T00:09:28.139Z,18.30
2018-09-07T00:14:31.258Z,18.30
2018-09-07T00:19:34.859Z,18.30
2018-09-07T00:24:38.127Z,18.30
2018-09-07T00:29:41.207Z,18.10
2018-09-07T00:34:44.519Z,18.10
2018-09-07T00:39:47.695Z,18.00
2018-09-07T00:44:50.802Z,17.90
2018-09-07T00:49:54.260Z,17.90
2018-09-07T00:54:57.539Z,17.90
2018-09-07T01:00:03.263Z,17.80
2018-09-07T01:05:06.344Z,17.60
2018-09-07T01:10:10.498Z,17.60
2018-09-07T01:15:13.891Z,17.60
2018-09-07T01:20:17.502Z,17.60
2018-09-07T01:25:20.967Z,17.60
2018-09-07T01:30:24.056Z,17.50
2018-09-07T01:35:28.756Z,17.50
2018-09-07T01:40:31.842Z,17.40
2018-09-07T01:45:36.090Z,17.30
2018-09-07T01:50:39.235Z,17.30
2018-09-07T01:55:42.581Z,17.30
2018-09-07T02:00:45.667Z,17.30
2018-09-07T02:05:49.007Z,17.30
2018-09-07T02:10:54.283Z,17.20
2018-09-07T02:15:57.671Z,17.30
2018-09-07T02:21:04.173Z,17.30
2018-09-07T02:26:07.340Z,17.30
2018-09-07T02:31:10.471Z,17.30
2018-09-07T02:36:13.809Z,17.30
2018-09-07T02:41:16.897Z,17.40
2018-09-07T02:46:20.275Z,17.40
2018-09-07T02:51:23.556Z,17.40
2018-09-07T02:56:26.672Z,17.40
2018-09-07T03:01:29.762Z,17.40
2018-09-07T03:06:32.879Z,17.40
2018-09-07T03:11:36.114Z,17.40
2018-09-07T03:16:39.619Z,17.40
2018-09-07T03:21:42.821Z,17.40
2018-09-07T03:26:46.116Z,17.30
2018-09-07T03:31:49.204Z,17.40
2018-09-07T03:36:52.557Z,17.40
2018-09-07T03:41:55.610Z,17.40
2018-09-07T03:46:58.744Z,17.40
2018-09-07T03:52:04.459Z,17.40
2018-09-07T03:57:07.555Z,17.40
2018-09-07T04:02:10.675Z,17.40
2018-09-07T04:07:13.747Z,17.40
2018-09-07T04:12:17.042Z,17.50
2018-09-07T04:17:20.176Z,17.50
2018-09-07T04:22:23.573Z,17.50
2018-09-07T04:27:26.647Z,17.40
2018-09-07T04:32:29.942Z,17.40
2018-09-07T04:37:33.070Z,17.40
2018-09-07T04:42:36.285Z,17.40
2018-09-07T04:47:39.404Z,17.40
2018-09-07T04:52:42.433Z,17.40
2018-09-07T04:57:45.605Z,17.30
2018-09-07T05:02:48.668Z,17.20
2018-09-07T05:07:52.133Z,17.30
2018-09-07T05:12:55.155Z,17.50
2018-09-07T05:17:58.424Z,17.50
2018-09-07T05:23:02.873Z,17.40
2018-09-07T05:28:06.897Z,17.40
2018-09-07T05:33:09.942Z,17.50
2018-09-07T05:38:12.922Z,17.60
2018-09-07T05:43:16.128Z,17.60
2018-09-07T05:48:19.920Z,17.90
2018-09-07T05:53:23.057Z,18.10
2018-09-07T05:58:26.096Z,18.20
2018-09-07T06:03:29.142Z,18.40
2018-09-07T06:08:32.222Z,18.30
2018-09-07T06:13:35.358Z,18.30
2018-09-07T06:18:38.463Z,18.20
2018-09-07T06:23:41.723Z,18.20
2018-09-07T06:28:44.720Z,18.30
2018-09-07T06:33:47.819Z,18.30
2018-09-07T06:38:50.997Z,18.30
2018-09-07T06:43:53.937Z,18.40
2018-09-07T06:48:56.901Z,18.70
2018-09-07T06:53:59.920Z,19.10
2018-09-07T06:59:03.876Z,19.40
2018-09-07T07:04:06.995Z,20.70
2018-09-07T07:09:10.060Z,21.70
2018-09-07T07:14:13.092Z,23.20
2018-09-07T07:19:16.100Z,22.30
2018-09-07T07:24:19.105Z,21.20
2018-09-07T07:29:22.145Z,22.00
2018-09-07T07:34:25.129Z,22.40
2018-09-07T07:39:28.208Z,21.80
2018-09-07T07:44:31.288Z,21.00
2018-09-07T07:49:34.292Z,21.70
2018-09-07T07:54:37.372Z,21.90
2018-09-07T07:59:40.454Z,21.80
2018-09-07T08:04:43.472Z,21.20
2018-09-07T08:09:46.477Z,21.10
2018-09-07T08:14:49.507Z,21.70
2018-09-07T08:19:52.552Z,21.60
2018-09-07T08:24:55.516Z,22.30
2018-09-07T08:29:58.654Z,22.80
2018-09-07T08:35:02.284Z,24.00
2018-09-07T08:40:06.574Z,24.00
2018-09-07T08:45:09.638Z,23.00
2018-09-07T08:50:12.771Z,22.10
2018-09-07T08:55:15.826Z,21.60
2018-09-07T09:00:18.917Z,21.10
2018-09-07T09:05:22.024Z,20.70
2018-09-07T09:10:25.348Z,21.90
2018-09-07T09:15:28.445Z,21.90
2018-09-07T09:20:31.761Z,21.50
2018-09-07T09:25:35.788Z,21.30
2018-09-07T09:30:38.907Z,21.10
2018-09-07T09:35:41.991Z,21.40
2018-09-07T09:40:45.099Z,22.30
2018-09-07T09:45:48.406Z,22.70
2018-09-07T09:50:51.711Z,23.00
2018-09-07T09:55:54.985Z,23.40
2018-09-07T10:01:03.610Z,23.20
2018-09-07T10:06:06.670Z,23.20
2018-09-07T10:11:09.892Z,22.50
2018-09-07T10:16:12.958Z,22.40
2018-09-07T10:21:16.026Z,22.30
2018-09-07T10:26:19.130Z,22.30
2018-09-07T10:31:22.208Z,22.80
2018-09-07T10:36:25.283Z,23.30
2018-09-07T10:41:28.331Z,23.50
2018-09-07T10:46:31.518Z,23.70
2018-09-07T10:51:34.619Z,23.60
2018-09-07T10:56:37.670Z,23.60
2018-09-07T11:01:40.776Z,23.60
2018-09-07T11:06:43.860Z,23.70
2018-09-07T11:11:47.029Z,24.00
2018-09-07T11:16:50.086Z,24.20
2018-09-07T11:21:53.236Z,24.20
2018-09-07T11:26:56.302Z,24.30
2018-09-07T11:31:59.384Z,24.30
2018-09-07T11:37:04.810Z,24.60
2018-09-07T11:42:08.035Z,24.50
2018-09-07T11:47:11.191Z,24.10
2018-09-07T11:52:14.486Z,23.50
2018-09-07T11:57:17.675Z,22.80
2018-09-07T12:02:21.072Z,23.60
2018-09-07T12:07:24.192Z,24.20
2018-09-07T12:12:27.408Z,24.00
2018-09-07T12:17:30.669Z,23.50
2018-09-07T12:22:34.331Z,23.50
2018-09-07T12:27:37.614Z,23.20
2018-09-07T12:32:40.871Z,23.10
2018-09-07T12:37:44.239Z,22.80
2018-09-07T12:42:47.782Z,23.10
2018-09-07T12:47:52.293Z,23.40
2018-09-07T12:52:55.484Z,23.40
2018-09-07T12:57:58.537Z,23.10
2018-09-07T13:03:03.236Z,23.40
2018-09-07T13:08:06.480Z,23.50
2018-09-07T13:13:09.576Z,23.20
2018-09-07T13:18:12.817Z,22.50
2018-09-07T13:23:15.890Z,22.20
2018-09-07T13:28:18.929Z,22.20
2018-09-07T13:33:22.029Z,22.50
2018-09-07T13:38:25.129Z,22.70
2018-09-07T13:43:28.278Z,22.70
2018-09-07T13:48:31.395Z,22.80
2018-09-07T13:53:34.563Z,22.80
2018-09-07T13:58:37.786Z,22.40
2018-09-07T14:03:41.112Z,22.40
2018-09-07T14:08:44.238Z,22.20
2018-09-07T14:13:48.169Z,22.40
2018-09-07T14:18:51.321Z,22.10
2018-09-07T14:23:54.654Z,22.00
2018-09-07T14:28:57.711Z,22.40
2018-09-07T14:34:03.237Z,22.70
2018-09-07T14:39:06.715Z,22.90
2018-09-07T14:44:09.799Z,22.70
2018-09-07T14:49:13.144Z,22.70
2018-09-07T14:54:16.246Z,22.20
2018-09-07T14:59:19.296Z,22.00
2018-09-07T15:04:22.519Z,22.10
2018-09-07T15:09:25.565Z,22.10
2018-09-07T15:14:28.620Z,21.60
2018-09-07T15:19:31.691Z,21.70
2018-09-07T15:24:34.870Z,21.80
2018-09-07T15:29:38.125Z,21.70
2018-09-07T15:34:41.179Z,21.60
2018-09-07T15:39:44.302Z,21.50
2018-09-07T15:44:47.380Z,21.40
2018-09-07T15:49:50.434Z,21.20
2018-09-07T15:54:53.900Z,21.20
2018-09-07T15:59:56.983Z,21.20
2018-09-07T16:05:00.235Z,20.80
2018-09-07T16:10:05.047Z,20.40
2018-09-07T16:15:08.165Z,20.40
2018-09-07T16:20:11.519Z,20.80
2018-09-07T16:25:14.744Z,21.00
2018-09-07T16:30:17.888Z,20.50
2018-09-07T16:35:21.066Z,20.40
2018-09-07T16:40:24.091Z,20.20
2018-09-07T16:45:27.368Z,19.90
2018-09-07T16:50:30.525Z,19.80
2018-09-07T16:55:33.515Z,19.70
2018-09-07T17:00:36.680Z,19.70
2018-09-07T17:05:39.663Z,19.70
2018-09-07T17:10:42.705Z,19.60
2018-09-07T17:15:46.012Z,19.30
2018-09-07T17:20:49.184Z,18.90
2018-09-07T17:25:52.313Z,18.80
2018-09-07T17:30:55.240Z,18.70
2018-09-07T17:35:58.442Z,18.80
2018-09-07T17:41:03.822Z,18.70
2018-09-07T17:46:06.899Z,18.70
2018-09-07T17:51:10.216Z,18.60
2018-09-07T17:56:13.519Z,18.40
2018-09-07T18:01:16.743Z,18.20
2018-09-07T18:06:26.154Z,18.10
2018-09-07T18:11:30.225Z,17.80
2018-09-07T18:16:33.436Z,17.60
2018-09-07T18:21:36.745Z,17.60
2018-09-07T18:26:40.044Z,17.70
2018-09-07T18:31:43.388Z,17.70
2018-09-07T18:36:46.798Z,17.60
2018-09-07T18:41:49.923Z,17.60
2018-09-07T18:46:53.241Z,17.70
2018-09-07T18:51:56.410Z,17.60
2018-09-07T18:56:59.476Z,17.60
2018-09-07T19:02:04.420Z,17.40
2018-09-07T19:07:07.674Z,17.20
2018-09-07T19:12:10.874Z,17.00
2018-09-07T19:17:14.105Z,16.80
2018-09-07T19:22:17.524Z,16.60
2018-09-07T19:27:20.642Z,16.40
2018-09-07T19:32:24.559Z,16.60
2018-09-07T19:37:27.862Z,16.70
2018-09-07T19:42:31.390Z,16.80
2018-09-07T19:47:34.487Z,16.80
2018-09-07T19:52:38.101Z,16.80
2018-09-07T19:57:41.210Z,16.80
2018-09-07T20:02:44.214Z,16.70
2018-09-07T20:07:47.396Z,16.50
2018-09-07T20:12:50.677Z,16.30
2018-09-07T20:17:53.608Z,16.20
2018-09-07T20:22:56.684Z,16.10
2018-09-07T20:27:59.777Z,16.10
2018-09-07T20:33:05.090Z,15.90
2018-09-07T20:38:08.195Z,15.60
2018-09-07T20:43:11.393Z,15.50
2018-09-07T20:48:14.609Z,15.30
2018-09-07T20:53:17.775Z,15.10
2018-09-07T20:58:20.821Z,15.00
2018-09-07T21:03:24.029Z,15.00
2018-09-07T21:08:27.253Z,15.00
2018-09-07T21:13:30.454Z,15.00
2018-09-07T21:18:33.566Z,15.10
2018-09-07T21:23:36.689Z,15.30
2018-09-07T21:28:39.865Z,15.40
2018-09-07T21:33:43.286Z,15.40
2018-09-07T21:38:46.335Z,15.40
2018-09-07T21:43:49.613Z,15.30
2018-09-07T21:48:52.681Z,15.30
2018-09-07T21:53:55.628Z,15.30
2018-09-07T21:58:58.728Z,15.30
2018-09-07T22:04:03.965Z,15.40
2018-09-07T22:09:06.974Z,15.30
2018-09-07T22:14:10.233Z,15.40
2018-09-07T22:19:13.502Z,15.40
2018-09-07T22:24:16.517Z,15.20
2018-09-07T22:29:19.628Z,15.20
2018-09-07T22:34:22.932Z,15.30
2018-09-07T22:39:26.343Z,15.40
2018-09-07T22:44:29.654Z,15.60
2018-09-07T22:49:32.823Z,15.60
2018-09-07T22:54:36.409Z,15.60
2018-09-07T22:59:39.588Z,15.60
2018-09-07T23:04:42.794Z,15.40
2018-09-07T23:09:46.102Z,15.10
2018-09-07T23:14:49.439Z,15.10
2018-09-07T23:19:52.749Z,15.00
2018-09-07T23:24:55.812Z,15.00
2018-09-07T23:29:59.054Z,15.10
2018-09-07T23:35:03.073Z,15.10
2018-09-07T23:40:06.593Z,15.00
2018-09-07T23:45:09.954Z,14.80
2018-09-07T23:50:13.107Z,14.60
2018-09-07T23:55:16.331Z,14.40
